Great Sankey, United Kingdom
Current Conditions -  °F | °C
As of 8:20 AM on Saturday 22 Nov 2014 (Local Time) from EGGP Reporting Station
Haze Haze  
Wind Chill: 52°   Ceiling: Unl
Heat Index: 52°   Visibility: 3mi
Dew Point: 50°   Wind: 9mph
Humidity: 94%   Direction: 180°S
Pressure: 29.77"   Gusts: NA
Location:  53.39°N, 2.64°W
Report Text: EGGP 220820Z 18008KT 5000 BR FEW004 11/10 Q1008
Loading
Personal Weather Stations






























Interactive Weather Map New forecast layout! Learn more

10-Day Weather Forecast

Advertisements
Track Severe Weather on mobile